Time;durP1;ratioP1;P1;durP2;ratioP2;P2;SDS_P1;SDS_P2;PMS_P1;PMS_P2;Temp;Humidity;BMP_temperature;BMP_pressure;BME280_temperature;BME280_humidity;BME280_pressure;Samples;Min_cycle;Max_cycle;Signal;HPM_P1;HPM_P2
2023/03/06 00:00:58;;;;;;;5.82;3.15;;;;;;;4.73;100.00;100352.81;5046097;28;21063;-50
2023/03/06 00:03:26;;;;;;;4.55;3.00;;;;;;;4.72;100.00;100342.44;5047851;28;20071;-51
2023/03/06 00:05:54;;;;;;;5.03;3.17;;;;;;;4.65;100.00;100344.88;5047721;28;20090;-50
2023/03/06 00:08:19;;;;;;;8.77;3.38;;;;;;;4.64;100.00;100348.47;5053814;28;20599;-50
2023/03/06 00:10:45;;;;;;;5.90;2.58;;;;;;;4.65;100.00;100355.41;5052855;28;20113;-54
2023/03/06 00:13:13;;;;;;;8.38;2.55;;;;;;;4.70;100.00;100349.66;5054465;28;20152;-52
2023/03/06 00:15:39;;;;;;;10.30;2.47;;;;;;;4.63;100.00;100346.84;5042360;28;20040;-54
2023/03/06 00:18:05;;;;;;;3.85;2.47;;;;;;;4.69;100.00;100342.75;5047257;28;20025;-52
2023/03/06 00:20:31;;;;;;;8.98;3.22;;;;;;;4.68;100.00;100347.19;5048077;28;20057;-52
2023/03/06 00:22:57;;;;;;;5.28;2.70;;;;;;;4.69;100.00;100333.06;5049568;28;20017;-49
2023/03/06 00:25:23;;;;;;;3.38;2.47;;;;;;;4.76;100.00;100335.91;5044669;28;20032;-49
2023/03/06 00:27:48;;;;;;;10.70;3.58;;;;;;;4.77;100.00;100327.03;5042333;28;20544;-50
2023/03/06 00:30:17;;;;;;;4.70;2.60;;;;;;;4.77;100.00;100334.91;5048769;28;20391;-54
2023/03/06 00:32:42;;;;;;;6.00;2.88;;;;;;;4.76;100.00;100323.59;5047493;28;20021;-54
2023/03/06 00:35:08;;;;;;;8.02;3.00;;;;;;;4.85;100.00;100319.19;5049247;28;20035;-49
2023/03/06 00:37:34;;;;;;;6.30;2.88;;;;;;;4.92;100.00;100328.09;5047137;28;20489;-49
2023/03/06 00:39:59;;;;;;;7.40;2.42;;;;;;;4.90;100.00;100318.72;5046517;28;20033;-51
2023/03/06 00:42:24;;;;;;;7.15;2.92;;;;;;;4.91;100.00;100312.50;5043190;28;20034;-54
2023/03/06 00:44:50;;;;;;;7.60;2.42;;;;;;;4.95;100.00;100313.81;5038944;28;20052;-52
2023/03/06 00:47:16;;;;;;;4.07;2.45;;;;;;;4.95;100.00;100312.00;5043741;28;20036;-53
2023/03/06 00:49:42;;;;;;;4.57;2.33;;;;;;;4.97;100.00;100303.97;5044776;28;20040;-53
2023/03/06 00:52:08;;;;;;;10.90;2.75;;;;;;;4.93;100.00;100297.38;5050441;28;20053;-51
2023/03/06 00:54:33;;;;;;;5.53;2.42;;;;;;;4.86;100.00;100297.22;5047831;28;20025;-51
2023/03/06 00:56:59;;;;;;;7.47;2.53;;;;;;;4.82;100.00;100303.75;5046133;28;20582;-52
2023/03/06 00:59:24;;;;;;;4.25;2.95;;;;;;;4.74;100.00;100301.91;5050172;28;20068;-51
2023/03/06 01:01:49;;;;;;;7.03;2.40;;;;;;;4.74;100.00;100293.22;5046749;28;20091;-51
2023/03/06 01:04:15;;;;;;;4.95;2.60;;;;;;;4.78;100.00;100302.44;5046021;28;20052;-54
2023/03/06 01:06:40;;;;;;;5.93;2.63;;;;;;;4.74;100.00;100296.66;5043104;28;20496;-49
2023/03/06 01:09:05;;;;;;;5.53;2.75;;;;;;;4.73;100.00;100297.66;5046561;28;20512;-53
2023/03/06 01:11:31;;;;;;;4.45;2.00;;;;;;;4.71;100.00;100290.91;5047794;28;20504;-53
2023/03/06 01:13:56;;;;;;;4.32;2.65;;;;;;;4.79;100.00;100298.81;5047761;28;20025;-50
2023/03/06 01:16:22;;;;;;;4.22;2.38;;;;;;;4.75;100.00;100286.97;5044912;28;20028;-50
2023/03/06 01:18:48;;;;;;;5.15;2.67;;;;;;;4.76;100.00;100288.63;5046185;28;20032;-50
2023/03/06 01:21:14;;;;;;;3.45;2.00;;;;;;;4.74;100.00;100290.59;5046272;28;20078;-55
2023/03/06 01:23:39;;;;;;;6.43;2.33;;;;;;;4.73;100.00;100278.44;5048883;28;20120;-53
2023/03/06 01:26:05;;;;;;;6.32;2.28;;;;;;;4.71;100.00;100283.03;5045942;28;20033;-54
2023/03/06 01:28:32;;;;;;;5.70;2.95;;;;;;;4.65;100.00;100281.84;5049176;28;20021;-51
2023/03/06 01:30:59;;;;;;;5.45;2.70;;;;;;;4.64;100.00;100277.56;5043532;28;20085;-49
2023/03/06 01:33:24;;;;;;;5.57;2.22;;;;;;;4.68;100.00;100278.09;5050017;28;20033;-50
2023/03/06 01:35:49;;;;;;;5.65;2.63;;;;;;;4.71;100.00;100277.78;5047025;28;20064;-51
2023/03/06 01:38:15;;;;;;;4.07;2.03;;;;;;;4.71;100.00;100272.53;5047684;28;20053;-51
2023/03/06 01:40:40;;;;;;;7.22;2.53;;;;;;;4.69;100.00;100271.84;5048523;28;20025;-54
2023/03/06 01:43:33;;;;;;;6.50;2.35;;;;;;;4.67;100.00;100271.19;5043477;28;20037;-50
2023/03/06 01:46:22;;;;;;;3.75;1.98;;;;;;;4.75;100.00;100269.44;5042173;28;20057;-52
2023/03/06 01:48:53;;;;;;;4.32;2.20;;;;;;;4.69;100.00;100269.22;5047729;28;20025;-52
2023/03/06 01:51:19;;;;;;;2.40;1.55;;;;;;;4.66;100.00;100270.38;5044948;28;20021;-50
2023/03/06 01:53:47;;;;;;;7.18;2.30;;;;;;;4.65;100.00;100265.28;5043465;28;20087;-54
2023/03/06 01:56:14;;;;;;;4.13;2.47;;;;;;;4.67;100.00;100265.94;5046535;28;20025;-51
2023/03/06 01:58:42;;;;;;;5.70;2.88;;;;;;;4.62;100.00;100268.19;5049409;28;20037;-51
2023/03/06 02:01:10;;;;;;;3.33;2.45;;;;;;;4.67;100.00;100260.69;5044418;28;20033;-49
2023/03/06 02:03:35;;;;;;;3.33;2.20;;;;;;;4.61;100.00;100266.56;5044470;28;20494;-51
2023/03/06 02:06:01;;;;;;;5.53;1.88;;;;;;;4.63;100.00;100262.00;5041659;28;20178;-50
2023/03/06 02:08:27;;;;;;;5.03;2.38;;;;;;;4.73;100.00;100257.44;5045995;28;20048;-51
2023/03/06 02:11:05;;;;;;;4.10;2.13;;;;;;;4.72;100.00;100251.34;5046436;28;20028;-53
2023/03/06 02:13:31;;;;;;;3.45;2.47;;;;;;;4.64;100.00;100255.75;5049707;28;20447;-52
2023/03/06 02:15:57;;;;;;;5.28;2.25;;;;;;;4.57;100.00;100238.00;5047082;28;20037;-51
2023/03/06 02:18:23;;;;;;;3.25;1.95;;;;;;;4.50;100.00;100239.59;5049927;28;20103;-51
2023/03/06 02:20:53;;;;;;;2.97;2.25;;;;;;;4.44;100.00;100237.63;5048178;28;20021;-50
2023/03/06 02:23:21;;;;;;;3.38;1.25;;;;;;;4.29;100.00;100231.31;5046650;28;20032;-54
2023/03/06 02:25:49;;;;;;;4.15;1.42;;;;;;;4.11;100.00;100228.75;5045665;28;20037;-49
2023/03/06 02:28:18;;;;;;;1.65;0.85;;;;;;;3.92;100.00;100232.38;5036471;28;20033;-52
2023/03/06 02:30:46;;;;;;;1.92;1.45;;;;;;;3.76;100.00;100219.16;5040138;28;20516;-52
2023/03/06 02:33:13;;;;;;;4.03;1.52;;;;;;;3.63;100.00;100223.00;5046388;28;20029;-50
2023/03/06 02:35:42;;;;;;;3.35;2.03;;;;;;;3.57;100.00;100214.94;5048087;28;20032;-52
2023/03/06 02:38:12;;;;;;;1.83;1.30;;;;;;;3.47;100.00;100213.22;5047195;28;20025;-53
2023/03/06 02:40:38;;;;;;;2.80;1.20;;;;;;;3.37;100.00;100199.38;5042900;28;20047;-50
2023/03/06 02:43:04;;;;;;;2.72;1.33;;;;;;;3.25;100.00;100203.19;5045821;28;20469;-50
2023/03/06 02:45:43;;;;;;;3.03;1.40;;;;;;;3.12;100.00;100194.88;5040670;28;20743;-54
2023/03/06 02:48:08;;;;;;;2.95;1.13;;;;;;;3.07;100.00;100197.94;5044752;28;20074;-50
2023/03/06 02:50:34;;;;;;;1.48;1.20;;;;;;;2.97;100.00;100194.56;5047903;28;20033;-52
2023/03/06 02:52:59;;;;;;;1.90;1.02;;;;;;;2.95;100.00;100194.72;5044985;28;20021;-54
2023/03/06 02:55:24;;;;;;;5.70;1.30;;;;;;;2.94;100.00;100200.94;5046235;28;20079;-53
2023/03/06 02:57:50;;;;;;;2.30;0.75;;;;;;;2.96;100.00;100198.97;5042656;28;20047;-53
2023/03/06 03:00:16;;;;;;;2.30;1.20;;;;;;;2.88;100.00;100195.47;5046517;28;20053;-50
2023/03/06 03:02:42;;;;;;;1.63;1.05;;;;;;;2.86;100.00;100192.16;5041114;28;20059;-50
2023/03/06 03:05:08;;;;;;;1.75;1.27;;;;;;;2.92;100.00;100188.94;5043331;28;20041;-52
2023/03/06 03:07:33;;;;;;;1.95;0.98;;;;;;;2.97;100.00;100181.47;5047452;28;20028;-51
2023/03/06 03:09:59;;;;;;;1.23;0.98;;;;;;;2.99;100.00;100184.78;5046791;28;20420;-52
2023/03/06 03:12:24;;;;;;;2.72;1.48;;;;;;;3.00;100.00;100176.78;5046897;28;20415;-49
2023/03/06 03:14:49;;;;;;;3.45;1.02;;;;;;;2.93;100.00;100167.03;5043775;28;20609;-52
2023/03/06 03:17:15;;;;;;;2.35;1.02;;;;;;;2.92;100.00;100174.09;5047845;28;20036;-51
2023/03/06 03:19:40;;;;;;;1.33;0.98;;;;;;;2.88;100.00;100174.53;5047044;28;20053;-52
2023/03/06 03:22:06;;;;;;;3.95;1.45;;;;;;;2.81;100.00;100158.56;5045479;28;20655;-53
2023/03/06 03:24:31;;;;;;;4.65;1.30;;;;;;;2.79;100.00;100163.16;5046829;28;20033;-48
2023/03/06 03:26:57;;;;;;;0.70;0.60;;;;;;;2.78;100.00;100159.69;5046215;28;20474;-54
2023/03/06 03:29:22;;;;;;;3.53;1.00;;;;;;;2.85;100.00;100157.31;5045524;28;20044;-50
2023/03/06 03:31:47;;;;;;;2.05;1.00;;;;;;;2.92;100.00;100153.13;5045271;28;20545;-50
2023/03/06 03:34:13;;;;;;;4.43;2.00;;;;;;;2.96;100.00;100145.78;5049734;28;20048;-50
2023/03/06 03:36:38;;;;;;;1.60;1.38;;;;;;;2.86;100.00;100142.41;5046908;28;20029;-51
2023/03/06 03:39:04;;;;;;;2.70;1.90;;;;;;;2.78;100.00;100145.78;5045547;28;20029;-55
2023/03/06 03:41:30;;;;;;;1.63;0.73;;;;;;;2.68;100.00;100135.38;5043006;28;20037;-51
2023/03/06 03:43:56;;;;;;;5.63;1.27;;;;;;;2.56;100.00;100133.97;5045929;28;20561;-51
2023/03/06 03:46:21;;;;;;;2.13;1.27;;;;;;;2.40;100.00;100143.28;5038860;28;20115;-52
2023/03/06 03:48:46;;;;;;;1.83;1.05;;;;;;;2.37;100.00;100148.78;5043050;28;20033;-54
2023/03/06 03:51:15;;;;;;;2.15;0.88;;;;;;;2.35;100.00;100144.66;5042018;28;20405;-52
2023/03/06 03:53:41;;;;;;;1.38;1.02;;;;;;;2.28;100.00;100147.03;5045945;28;20448;-50
2023/03/06 03:56:07;;;;;;;1.25;1.05;;;;;;;2.17;100.00;100147.25;5048461;28;20033;-52
2023/03/06 03:58:32;;;;;;;1.75;0.95;;;;;;;2.08;100.00;100148.09;5045782;28;20521;-52
2023/03/06 04:00:57;;;;;;;3.60;1.42;;;;;;;2.02;100.00;100136.44;5049007;28;20228;-48
2023/03/06 04:03:22;;;;;;;5.03;1.30;;;;;;;2.06;100.00;100136.97;5044760;28;20457;-50
2023/03/06 04:05:48;;;;;;;2.10;0.98;;;;;;;2.12;100.00;100131.97;5050010;28;20040;-52
2023/03/06 04:08:13;;;;;;;1.02;0.80;;;;;;;2.24;100.00;100127.38;5047373;28;20024;-50
2023/03/06 04:10:39;;;;;;;2.33;0.90;;;;;;;2.32;100.00;100124.88;5049600;28;20267;-51
2023/03/06 04:13:05;;;;;;;10.32;1.38;;;;;;;2.42;100.00;100116.13;5047661;28;20053;-50
2023/03/06 04:15:31;;;;;;;1.95;1.60;;;;;;;2.48;100.00;100108.53;5045398;28;20036;-51
2023/03/06 04:17:56;;;;;;;1.25;0.98;;;;;;;2.47;100.00;100108.66;5038544;28;20033;-53
2023/03/06 04:20:22;;;;;;;1.55;1.05;;;;;;;2.46;100.00;100105.22;5048550;28;20032;-51
2023/03/06 04:22:47;;;;;;;5.07;1.30;;;;;;;2.40;100.00;100109.25;5046997;28;20029;-51
2023/03/06 04:25:13;;;;;;;1.90;1.38;;;;;;;2.48;100.00;100107.66;5046093;28;20068;-51
2023/03/06 04:27:38;;;;;;;0.88;0.80;;;;;;;2.56;100.00;100099.94;5046501;28;20033;-50
2023/03/06 04:30:05;;;;;;;1.92;1.25;;;;;;;2.67;100.00;100091.84;5043961;28;20587;-50
2023/03/06 04:32:31;;;;;;;1.48;0.80;;;;;;;2.75;100.00;100089.28;5038715;28;20147;-50
2023/03/06 04:34:56;;;;;;;3.67;1.05;;;;;;;2.84;100.00;100084.97;5046556;28;20123;-52
2023/03/06 04:37:24;;;;;;;4.78;1.42;;;;;;;2.90;100.00;100086.16;5048722;28;20074;-52
2023/03/06 04:39:50;;;;;;;1.05;0.70;;;;;;;2.92;100.00;100079.81;5046816;28;20029;-49
2023/03/06 04:42:15;;;;;;;3.35;0.52;;;;;;;2.74;100.00;100082.44;5052115;28;20547;-49
2023/03/06 04:44:41;;;;;;;1.27;0.98;;;;;;;2.62;100.00;100081.00;5047135;28;20170;-53
2023/03/06 04:47:07;;;;;;;1.85;1.08;;;;;;;2.58;100.00;100077.03;5047447;28;20106;-48
2023/03/06 04:49:33;;;;;;;4.55;1.45;;;;;;;2.57;100.00;100078.00;5049754;28;20025;-50
2023/03/06 04:51:58;;;;;;;2.63;1.05;;;;;;;2.60;100.00;100070.66;5041959;28;20367;-48
2023/03/06 04:54:24;;;;;;;1.45;0.60;;;;;;;2.78;100.00;100060.19;5044146;28;20043;-52
2023/03/06 04:56:49;;;;;;;1.65;0.95;;;;;;;2.78;100.00;100056.75;5043419;28;20067;-52
2023/03/06 04:59:14;;;;;;;2.92;1.35;;;;;;;2.81;100.00;100052.06;5053689;28;20532;-51
2023/03/06 05:01:40;;;;;;;2.15;1.20;;;;;;;2.90;100.00;100047.69;5044774;28;20543;-52
2023/03/06 05:04:05;;;;;;;1.35;0.90;;;;;;;2.90;100.00;100054.75;5050165;28;20036;-50
2023/03/06 05:06:30;;;;;;;2.38;1.17;;;;;;;2.90;100.00;100044.25;5045448;28;20095;-49
2023/03/06 05:08:56;;;;;;;1.33;0.60;;;;;;;2.98;100.00;100049.56;5046843;28;20033;-51
2023/03/06 05:11:21;;;;;;;2.65;1.83;;;;;;;3.00;100.00;100043.19;5046163;28;20028;-50
2023/03/06 05:13:46;;;;;;;1.98;1.10;;;;;;;2.98;100.00;100041.69;5045821;28;20040;-52
2023/03/06 05:16:12;;;;;;;0.93;0.77;;;;;;;3.01;100.00;100047.44;5046533;28;20048;-54
2023/03/06 05:18:37;;;;;;;1.90;1.33;;;;;;;2.97;100.00;100045.28;5050222;28;20064;-53
2023/03/06 05:21:03;;;;;;;1.02;0.93;;;;;;;2.96;100.00;100033.97;5043414;28;20068;-51
2023/03/06 05:23:32;;;;;;;3.22;1.77;;;;;;;3.08;100.00;100041.63;5047127;28;20359;-55
2023/03/06 05:25:58;;;;;;;2.75;0.95;;;;;;;3.15;100.00;100033.00;5044995;28;20466;-52
2023/03/06 05:28:25;;;;;;;5.78;1.50;;;;;;;3.25;100.00;100033.72;5048272;28;20035;-53
2023/03/06 05:30:51;;;;;;;1.75;1.17;;;;;;;3.33;100.00;100022.47;5044011;28;20037;-51
2023/03/06 05:33:16;;;;;;;1.17;1.05;;;;;;;3.37;100.00;100020.34;5046761;28;20367;-49
2023/03/06 05:35:47;;;;;;;1.80;1.27;;;;;;;3.37;100.00;100021.16;5041636;28;20029;-51
2023/03/06 05:38:13;;;;;;;3.20;1.20;;;;;;;3.42;100.00;100016.25;5049485;28;20033;-52
2023/03/06 05:40:40;;;;;;;2.25;0.85;;;;;;;3.41;100.00;100011.19;5041802;28;20082;-51
2023/03/06 05:43:07;;;;;;;2.78;1.27;;;;;;;3.40;100.00;100020.03;5047121;28;20078;-50
2023/03/06 05:45:33;;;;;;;3.30;1.27;;;;;;;3.32;100.00;100026.03;5045875;28;20049;-49
2023/03/06 05:47:58;;;;;;;1.63;0.90;;;;;;;3.27;100.00;100025.69;5047192;28;20393;-51
2023/03/06 05:50:23;;;;;;;1.90;1.23;;;;;;;3.28;100.00;100028.16;5046280;28;20024;-54
2023/03/06 05:52:49;;;;;;;2.17;1.45;;;;;;;3.32;100.00;100018.16;5046389;28;20025;-52
2023/03/06 05:55:15;;;;;;;1.80;1.20;;;;;;;3.40;100.00;100012.16;5045092;28;20119;-52
2023/03/06 05:57:41;;;;;;;2.55;1.17;;;;;;;3.43;100.00;100009.22;5042363;28;20032;-54
2023/03/06 06:00:08;;;;;;;3.92;1.10;;;;;;;3.49;100.00;100016.47;5045850;28;20342;-49
2023/03/06 06:02:34;;;;;;;4.43;1.92;;;;;;;3.62;100.00;100013.44;5044674;28;20024;-54
2023/03/06 06:05:01;;;;;;;4.72;0.70;;;;;;;3.70;100.00;100005.59;5026837;28;20052;-50
2023/03/06 06:07:26;;;;;;;3.15;1.60;;;;;;;3.74;100.00;100000.84;5042550;28;20037;-53
2023/03/06 06:09:52;;;;;;;2.45;1.25;;;;;;;3.81;100.00;99993.97;5043607;28;20044;-52
2023/03/06 06:12:17;;;;;;;2.05;1.20;;;;;;;3.86;100.00;99991.72;5045653;28;20592;-51
2023/03/06 06:14:43;;;;;;;1.80;1.42;;;;;;;4.00;100.00;99993.72;5040732;28;20052;-51
2023/03/06 06:17:09;;;;;;;1.05;0.65;;;;;;;4.10;100.00;99989.13;5043442;28;20033;-55
2023/03/06 06:19:34;;;;;;;2.05;1.45;;;;;;;4.23;100.00;99986.03;5045009;28;20068;-51
2023/03/06 06:22:02;;;;;;;1.58;0.90;;;;;;;4.26;100.00;99984.91;5049526;28;20028;-56
2023/03/06 06:24:27;;;;;;;1.67;1.20;;;;;;;4.28;100.00;99982.94;5049353;28;20726;-51
2023/03/06 06:26:55;;;;;;;2.95;1.50;;;;;;;4.34;100.00;99974.44;5048748;28;20029;-53
2023/03/06 06:29:21;;;;;;;2.78;1.27;;;;;;;4.39;100.00;99964.25;5048742;28;20028;-53
2023/03/06 06:31:47;;;;;;;1.45;0.95;;;;;;;4.43;100.00;99970.81;5051059;28;20024;-55
2023/03/06 06:34:13;;;;;;;1.88;0.98;;;;;;;4.51;100.00;99970.81;5053112;28;20033;-52
2023/03/06 06:36:39;;;;;;;1.50;1.40;;;;;;;4.62;100.00;99963.59;5048046;28;20025;-56
2023/03/06 06:39:05;;;;;;;6.85;1.45;;;;;;;4.63;100.00;99963.44;5049347;28;20048;-53
2023/03/06 06:41:31;;;;;;;1.65;1.08;;;;;;;4.59;100.00;99964.72;5048645;28;20024;-50
2023/03/06 06:43:57;;;;;;;2.17;1.35;;;;;;;4.59;100.00;99965.59;5041799;28;20137;-51
2023/03/06 06:46:23;;;;;;;2.50;1.45;;;;;;;4.69;100.00;99969.81;5046647;28;20052;-52
2023/03/06 06:48:51;;;;;;;1.67;1.58;;;;;;;4.72;100.00;99972.94;5052893;28;20021;-50
2023/03/06 06:51:16;;;;;;;2.50;1.55;;;;;;;4.67;100.00;99966.53;5047406;28;20025;-53
2023/03/06 06:53:42;;;;;;;2.17;1.40;;;;;;;4.67;100.00;99964.72;5046315;28;20053;-53
2023/03/06 06:56:07;;;;;;;1.67;1.27;;;;;;;4.72;100.00;99959.78;5041082;28;20032;-54
2023/03/06 06:58:32;;;;;;;2.60;1.60;;;;;;;4.79;100.00;99962.59;5040099;28;20480;-51
2023/03/06 07:01:07;;;;;;;3.05;1.63;;;;;;;4.81;100.00;99956.19;5042541;28;20444;-52
2023/03/06 07:03:33;;;;;;;1.75;1.30;;;;;;;4.86;100.00;99963.56;5043707;28;20033;-55
2023/03/06 07:05:58;;;;;;;2.70;1.52;;;;;;;4.88;100.00;99948.47;5044196;28;20021;-52
2023/03/06 07:08:24;;;;;;;1.92;1.45;;;;;;;4.97;100.00;99954.53;5047122;28;20103;-51
2023/03/06 07:10:49;;;;;;;2.67;2.03;;;;;;;4.97;100.00;99946.63;5038345;28;20102;-55
2023/03/06 07:13:15;;;;;;;2.95;1.20;;;;;;;4.95;100.00;99952.06;5036794;28;20416;-51
2023/03/06 07:15:40;;;;;;;2.13;1.15;;;;;;;4.96;100.00;99951.09;5033562;28;20117;-55
2023/03/06 07:18:05;;;;;;;3.30;1.45;;;;;;;5.02;100.00;99944.34;5029694;28;20168;-51
2023/03/06 07:20:31;;;;;;;4.13;1.40;;;;;;;5.07;100.00;99942.03;5039030;28;20068;-51
2023/03/06 07:22:57;;;;;;;1.77;1.58;;;;;;;5.10;100.00;99940.88;5036740;28;20025;-51
2023/03/06 07:25:22;;;;;;;4.63;1.65;;;;;;;5.14;100.00;99935.13;5031924;28;20040;-52
2023/03/06 07:27:52;;;;;;;0.90;0.80;;;;;;;5.13;100.00;99930.81;5034958;28;20112;-53
2023/03/06 07:30:18;;;;;;;2.60;1.67;;;;;;;5.20;100.00;99937.06;5040956;28;20275;-52
2023/03/06 07:32:43;;;;;;;2.05;1.67;;;;;;;5.25;100.00;99928.66;5044919;28;21368;-52
2023/03/06 07:35:12;;;;;;;1.08;0.98;;;;;;;5.26;100.00;99930.28;5042494;28;20035;-49
2023/03/06 07:37:37;;;;;;;3.85;1.23;;;;;;;5.24;100.00;99927.03;5047627;28;20116;-54
2023/03/06 07:40:04;;;;;;;2.75;1.55;;;;;;;5.23;100.00;99920.13;5064820;28;20132;-52
2023/03/06 07:42:30;;;;;;;3.03;1.70;;;;;;;5.24;100.00;99925.22;5049453;28;20039;-52
2023/03/06 07:44:55;;;;;;;4.38;2.28;;;;;;;5.24;100.00;99921.78;5047648;28;20048;-54
2023/03/06 07:47:20;;;;;;;3.30;1.73;;;;;;;5.23;100.00;99920.13;5048113;28;20052;-54
2023/03/06 07:49:46;;;;;;;3.03;1.83;;;;;;;5.26;100.00;99919.78;5049227;28;20024;-55
2023/03/06 07:52:11;;;;;;;3.70;1.88;;;;;;;5.32;100.00;99905.97;5047041;28;20637;-52
2023/03/06 07:54:37;;;;;;;4.38;2.20;;;;;;;5.32;100.00;99913.84;5044900;28;20032;-49
2023/03/06 07:57:02;;;;;;;4.43;1.63;;;;;;;5.41;100.00;99904.94;5050046;28;20025;-54
2023/03/06 07:59:27;;;;;;;5.05;2.17;;;;;;;5.45;100.00;99905.41;5049559;28;20029;-52
2023/03/06 08:01:54;;;;;;;2.58;1.48;;;;;;;5.52;100.00;99911.59;5046606;28;20033;-51
2023/03/06 08:04:20;;;;;;;3.53;2.35;;;;;;;5.65;100.00;99904.00;5049584;28;20028;-50
2023/03/06 08:06:45;;;;;;;8.90;2.00;;;;;;;5.74;100.00;99901.31;5048608;28;20573;-52
2023/03/06 08:09:11;;;;;;;6.22;2.55;;;;;;;5.86;100.00;99900.75;5053103;28;20465;-52
2023/03/06 08:11:36;;;;;;;3.38;2.58;;;;;;;5.94;100.00;99899.06;5041984;28;20026;-54
2023/03/06 08:14:01;;;;;;;3.65;2.22;;;;;;;5.98;100.00;99898.56;5047150;28;20033;-53
2023/03/06 08:16:29;;;;;;;4.45;2.50;;;;;;;6.04;100.00;99905.75;5054524;28;20075;-54
2023/03/06 08:18:55;;;;;;;4.57;2.08;;;;;;;6.08;100.00;99901.75;5046647;28;20032;-51
2023/03/06 08:21:23;;;;;;;5.32;2.78;;;;;;;6.21;100.00;99900.38;5050827;28;20037;-50
2023/03/06 08:23:48;;;;;;;3.67;2.97;;;;;;;6.24;100.00;99898.19;5044200;28;20061;-56
2023/03/06 08:26:16;;;;;;;4.35;2.42;;;;;;;6.32;100.00;99903.41;5051619;28;20064;-51
2023/03/06 08:28:43;;;;;;;4.93;3.00;;;;;;;6.36;100.00;99897.78;5045949;28;22000;-54
2023/03/06 08:31:11;;;;;;;4.78;3.15;;;;;;;6.34;100.00;99898.75;5042038;28;20025;-52
2023/03/06 08:33:38;;;;;;;5.15;2.58;;;;;;;6.40;100.00;99896.41;5050301;28;20394;-50
2023/03/06 08:36:04;;;;;;;3.75;2.00;;;;;;;6.52;100.00;99898.44;5043643;28;20583;-51
2023/03/06 08:38:29;;;;;;;2.35;1.63;;;;;;;6.72;100.00;99896.13;5045290;28;20028;-50
2023/03/06 08:40:55;;;;;;;3.10;2.50;;;;;;;7.01;100.00;99894.50;5049994;28;20405;-54
2023/03/06 08:43:20;;;;;;;3.33;1.67;;;;;;;7.25;100.00;99905.75;5043747;28;20032;-55
2023/03/06 08:45:51;;;;;;;5.03;2.40;;;;;;;7.48;100.00;99901.19;5059863;28;20068;-51
2023/03/06 08:48:16;;;;;;;3.40;2.33;;;;;;;7.52;100.00;99894.53;5051846;28;20521;-50
2023/03/06 08:50:42;;;;;;;3.95;2.17;;;;;;;7.40;100.00;99890.72;5049601;28;20075;-50
2023/03/06 08:53:07;;;;;;;3.35;2.40;;;;;;;7.26;100.00;99888.94;5047490;28;20163;-51
2023/03/06 08:55:35;;;;;;;5.35;2.20;;;;;;;7.25;100.00;99889.94;5050403;28;20031;-47
2023/03/06 08:58:01;;;;;;;4.03;1.95;;;;;;;7.20;100.00;99886.03;5047039;28;20033;-48
2023/03/06 09:00:26;;;;;;;2.30;1.42;;;;;;;7.22;100.00;99889.28;5062196;28;20021;-52
2023/03/06 09:02:52;;;;;;;3.58;1.92;;;;;;;7.29;100.00;99892.03;5045342;28;20041;-51
2023/03/06 09:05:18;;;;;;;5.25;2.15;;;;;;;7.34;100.00;99889.66;5047113;28;20095;-49
2023/03/06 09:07:43;;;;;;;3.47;2.22;;;;;;;7.36;100.00;99878.94;5031855;28;20084;-50
2023/03/06 09:10:13;;;;;;;5.70;3.28;;;;;;;7.45;100.00;99877.81;5017461;28;20433;-49
2023/03/06 09:12:38;;;;;;;6.47;4.22;;;;;;;7.54;100.00;99874.06;5046548;28;20036;-48
2023/03/06 09:15:04;;;;;;;5.10;3.22;;;;;;;7.68;100.00;99879.50;5046325;28;20037;-52
2023/03/06 09:17:30;;;;;;;5.72;2.42;;;;;;;7.80;100.00;99878.00;5046494;28;20079;-50
2023/03/06 09:19:55;;;;;;;4.82;2.47;;;;;;;7.91;100.00;99874.84;5047090;28;20033;-52
2023/03/06 09:22:20;;;;;;;4.80;2.70;;;;;;;8.02;100.00;99871.69;5046770;28;20021;-50
2023/03/06 09:24:45;;;;;;;5.05;2.90;;;;;;;8.06;100.00;99869.53;5044032;28;20061;-51
2023/03/06 09:27:11;;;;;;;5.10;1.88;;;;;;;8.09;100.00;99864.66;5047145;28;20072;-48
2023/03/06 09:29:36;;;;;;;5.88;2.88;;;;;;;8.26;100.00;99867.88;5050326;28;20029;-53
2023/03/06 09:32:02;;;;;;;3.38;2.40;;;;;;;8.45;100.00;99861.13;5052676;28;20367;-50
2023/03/06 09:34:27;;;;;;;2.42;1.35;;;;;;;8.51;100.00;99860.34;5047991;28;20040;-49
2023/03/06 09:36:52;;;;;;;1.58;1.13;;;;;;;8.50;100.00;99845.50;5048871;28;20045;-52
2023/03/06 09:39:18;;;;;;;3.75;2.17;;;;;;;8.48;100.00;99850.16;5047641;28;20037;-51
2023/03/06 09:41:50;;;;;;;1.52;0.90;;;;;;;8.56;100.00;99846.56;5044405;28;20029;-50
2023/03/06 09:44:18;;;;;;;1.08;1.02;;;;;;;8.67;100.00;99843.41;5037231;28;20037;-53
2023/03/06 09:47:02;;;;;;;1.35;0.82;;;;;;;8.72;100.00;99850.72;5046645;28;20057;-49
2023/03/06 09:49:37;;;;;;;1.58;1.05;;;;;;;8.73;100.00;99844.44;5052348;28;20032;-53
2023/03/06 09:52:18;;;;;;;0.70;0.63;;;;;;;8.61;100.00;99841.50;5048244;28;20032;-54
2023/03/06 09:54:46;;;;;;;2.60;0.65;;;;;;;8.62;100.00;99845.81;5048742;28;20032;-52
2023/03/06 09:57:49;;;;;;;1.17;0.75;;;;;;;8.82;100.00;99845.91;5047656;28;20032;-49
2023/03/06 10:00:26;;;;;;;1.15;1.05;;;;;;;8.87;100.00;99838.22;5043219;28;20037;-48
2023/03/06 10:03:10;;;;;;;2.25;1.00;;;;;;;8.93;100.00;99836.59;5043030;28;20498;-51
2023/03/06 10:05:42;;;;;;;0.68;0.35;;;;;;;9.14;100.00;99827.78;5047333;28;20432;-51
2023/03/06 10:08:21;;;;;;;1.95;0.85;;;;;;;9.30;100.00;99821.31;5047818;28;20025;-50
2023/03/06 10:11:01;;;;;;;2.58;1.08;;;;;;;9.46;100.00;99820.94;5049429;28;20393;-52
2023/03/06 10:14:15;;;;;;;1.10;1.00;;;;;;;9.64;100.00;99817.72;5043326;28;20037;-51
2023/03/06 10:16:40;;;;;;;1.33;1.20;;;;;;;9.82;100.00;99804.72;5045150;28;20102;-55
2023/03/06 10:19:15;;;;;;;2.22;1.38;;;;;;;9.75;100.00;99809.19;5042440;28;20433;-52
2023/03/06 10:21:48;;;;;;;4.80;0.93;;;;;;;9.91;100.00;99807.16;5047733;28;20128;-52
2023/03/06 10:24:23;;;;;;;1.45;0.73;;;;;;;9.79;100.00;99805.13;5054805;28;20258;-51
2023/03/06 10:27:09;;;;;;;1.75;0.90;;;;;;;9.63;100.00;99813.47;5042459;28;20033;-54
2023/03/06 10:29:51;;;;;;;4.05;0.77;;;;;;;9.72;100.00;99796.38;5043878;28;20354;-52
2023/03/06 10:32:45;;;;;;;;;;;;;;;10.02;100.00;99799.44;5049012;28;20478;-52
2023/03/06 10:35:17;;;;;;;0.68;0.50;;;;;;;9.97;100.00;99798.44;5033319;28;19921;-52
2023/03/06 10:37:42;;;;;;;1.92;0.90;;;;;;;9.99;100.00;99799.00;5045658;28;20061;-53
2023/03/06 10:40:19;;;;;;;0.68;0.50;;;;;;;9.93;100.00;99797.19;5043853;28;20064;-51
2023/03/06 10:42:44;;;;;;;1.17;0.93;;;;;;;9.77;100.00;99790.47;5047638;28;20032;-52
2023/03/06 10:45:12;;;;;;;0.98;0.70;;;;;;;9.88;100.00;99789.03;5042058;28;20044;-52
2023/03/06 10:47:39;;;;;;;5.00;0.70;;;;;;;9.96;100.00;99788.84;5049101;28;20414;-54
2023/03/06 10:50:21;;;;;;;3.30;0.68;;;;;;;10.23;100.00;99774.56;5049193;28;20056;-50
2023/03/06 10:52:58;;;;;;;1.00;0.57;;;;;;;10.47;100.00;99775.78;5047873;28;20037;-50
2023/03/06 10:55:28;;;;;;;0.57;0.40;;;;;;;10.48;100.00;99769.47;5048396;28;20381;-51
2023/03/06 10:57:53;;;;;;;1.30;0.63;;;;;;;10.72;100.00;99775.09;5050047;28;20535;-50
2023/03/06 11:00:31;;;;;;;2.20;0.50;;;;;;;10.55;100.00;99781.88;5047207;28;20032;-49
2023/03/06 11:03:03;;;;;;;3.13;0.88;;;;;;;10.56;100.00;99786.16;5047211;28;20295;-51
2023/03/06 11:05:29;;;;;;;3.55;1.15;;;;;;;10.37;100.00;99777.22;5050921;28;20047;-52
2023/03/06 11:07:58;;;;;;;1.02;0.73;;;;;;;10.63;100.00;99774.50;5047111;28;20103;-48
2023/03/06 11:10:24;;;;;;;0.40;0.40;;;;;;;10.63;100.00;99776.34;5045174;28;20039;-52
2023/03/06 11:13:07;;;;;;;3.90;0.70;;;;;;;10.70;100.00;99764.69;5047985;28;20036;-56
2023/03/06 11:15:33;;;;;;;1.02;0.50;;;;;;;10.96;100.00;99764.81;5050660;28;20028;-50
2023/03/06 11:18:22;;;;;;;2.00;0.35;;;;;;;11.02;100.00;99764.78;5044232;28;20504;-54
2023/03/06 11:20:51;;;;;;;1.27;1.02;;;;;;;11.18;100.00;99760.00;5050722;28;20021;-51
2023/03/06 11:23:46;;;;;;;1.48;0.80;;;;;;;11.12;100.00;99753.72;5047803;28;20093;-54
2023/03/06 11:26:14;;;;;;;0.40;0.40;;;;;;;10.77;100.00;99755.94;5050912;28;20118;-49
2023/03/06 11:28:45;;;;;;;2.30;1.00;;;;;;;10.97;100.00;99754.00;5050703;28;20092;-50
2023/03/06 11:31:22;;;;;;;1.77;0.65;;;;;;;11.08;100.00;99753.34;5050850;28;20126;-53